Terminal Aerodrome Forecast
Issued by NWS Wilmington, OH

Current Version | Previous Version | Text Only | Print | Product List | Glossary Off
Versions: 1 2 3 4 5 6 7 8 9 10 11 12 13 14 15 16 17 18 19 20 21 22 23 24

323
FTUS41 KILN 280835 AAB
TAFILN
TAF AMD
KILN 280835Z 2809/2906 VRB03KT P6SM VCTS BKN040CB BKN150
      TEMPO 2809/2810 2SM -TSRA BR OVC035CB
     FM281000 VRB03KT 6SM -SHRA BR BKN040 BKN150
      TEMPO 2811/2815 5SM -TSRA BR OVC035CB
     FM281800 20005KT P6SM VCTS BKN040CB BKN150
     FM290200 VRB04KT P6SM BKN080=

USA.gov is the U.S. government's official web portal to all federal, state and local government web resources and services.